This is the latest recevied weather packets stored in our database for station/object KI4LFI. If no packets are shown the sender has not sent any weather packets the latest 10 day(s).
| Time | Temp. | Humidity | Pressure | Rain* | Wind** | Luminosity | Snow |
|---|---|---|---|---|---|---|---|
| 1777915838 | 25.56° C | 44% | 1017.2 hPa | 0 mm | - | - | - |
| 1777908643 | 23.89° C | 51% | 1018.3 hPa | 0 mm | - | - | - |
| 1777907744 | 23.89° C | 51% | 1018.2 hPa | 0 mm | - | - | - |
| 1777896939 | 8.89° C | 100% | 1018 hPa | 0 mm | - | - | - |
| 1777895139 | 7.22° C | 99% | 1018 hPa | 0 mm | - | - | - |
| 1777894236 | 7.22° C | 99% | 1018 hPa | 0 mm | - | - | - |
| 1777892437 | 7.22° C | 99% | 1017.9 hPa | 0 mm | - | - | - |
| 1777886148 | 7.78° C | 98% | 1018 hPa | 0 mm | - | - | - |
| 1777881647 | 8.33° C | 97% | 1018 hPa | 0 mm | - | - | - |
| 1777877140 | 8.33° C | 96% | 1018.5 hPa | 0 mm | - | - | - |
| 1777876247 | 8.89° C | 96% | 1018.5 hPa | 0 mm | - | - | - |
| 1777872648 | 10° C | 96% | 1018.9 hPa | 0 mm | - | - | - |
| 1777863643 | 11.67° C | 90% | 1018.9 hPa | 0 mm | - | - | - |
| 1777862750 | 11.67° C | 85% | 1018.8 hPa | 0 mm | - | - | - |
| 1777861844 | 12.22° C | 86% | 1019 hPa | 0 mm | - | - | - |
| 1777860940 | 12.78° C | 83% | 1018.8 hPa | 0 mm | - | - | - |
| 1777844741 | 23.89° C | 39% | 1017.8 hPa | 0 mm | - | - | - |
| 1777831248 | 22.22° C | 42% | 1020.1 hPa | 0 mm | - | - | - |
| 1777829444 | 22.22° C | 43% | 1020.4 hPa | 0 mm | - | - | - |
| 1777827639 | 22.22° C | 41% | 1020.9 hPa | 0 mm | - | - | - |
| 1777824942 | 21.67° C | 46% | 1021.5 hPa | 0 mm | - | - | - |
| 1777822245 | 21.11° C | 47% | 1021.7 hPa | 0 mm | - | - | - |
| 1777816841 | 17.78° C | 66% | 1021.1 hPa | 0 mm | - | - | - |
| 1777815943 | 16.67° C | 74% | 1020.8 hPa | 0 mm | - | - | - |
| 1777797941 | 6.11° C | 98% | 1019.1 hPa | 0 mm | - | - | - |
* Rain latest hour (hover to see other rain measurements)
** Current wind speed in m/s (hover to see current wind gust speed)